Time;durP1;ratioP1;P1;durP2;ratioP2;P2;SDS_P1;SDS_P2;PMS_P1;PMS_P2;Temp;Humidity;BMP_temperature;BMP_pressure;BME280_temperature;BME280_humidity;BME280_pressure;Samples;Min_cycle;Max_cycle;Signal;HPM_P1;HPM_P2
2022/09/02 00:02:05;;;;;;;4.93;1.77;;;13.70;99.90;;;;;;5059937;28;20043;-86
2022/09/02 00:04:31;;;;;;;4.72;1.67;;;13.70;99.90;;;;;;5052241;28;20049;-86
2022/09/02 00:06:57;;;;;;;5.50;1.60;;;13.70;99.90;;;;;;5054301;28;20048;-86
2022/09/02 00:09:24;;;;;;;4.57;1.50;;;13.70;99.90;;;;;;5060744;28;20106;-85
2022/09/02 00:11:51;;;;;;;5.35;1.60;;;13.70;99.90;;;;;;5053568;28;20455;-86
2022/09/02 00:14:22;;;;;;;5.35;1.70;;;13.70;99.90;;;;;;5052416;28;20040;-86
2022/09/02 00:16:51;;;;;;;5.57;1.55;;;13.70;99.90;;;;;;5051853;28;20033;-86
2022/09/02 00:19:23;;;;;;;6.72;1.70;;;13.70;99.90;;;;;;5050812;28;20033;-86
2022/09/02 00:21:49;;;;;;;3.92;1.55;;;13.70;99.90;;;;;;5051885;28;20059;-86
2022/09/02 00:24:16;;;;;;;4.03;1.50;;;13.70;99.90;;;;;;5052977;28;20069;-86
2022/09/02 00:26:42;;;;;;;5.75;1.75;;;13.70;99.90;;;;;;5052308;28;20044;-87
2022/09/02 00:29:08;;;;;;;5.90;1.67;;;13.70;99.90;;;;;;5051421;28;20500;-86
2022/09/02 00:31:35;;;;;;;4.70;1.70;;;13.70;99.90;;;;;;5051338;28;20163;-86
2022/09/02 00:34:02;;;;;;;4.82;1.60;;;13.60;99.90;;;;;;5052368;28;20063;-86
2022/09/02 00:36:28;;;;;;;5.18;1.80;;;13.60;99.90;;;;;;5052793;28;20079;-86
2022/09/02 00:38:54;;;;;;;4.13;1.70;;;13.60;99.90;;;;;;5052743;28;20044;-85
2022/09/02 00:41:23;;;;;;;6.25;1.55;;;13.60;99.90;;;;;;5050742;28;20397;-86
2022/09/02 00:44:02;;;;;;;6.13;1.70;;;13.60;99.90;;;;;;5053294;28;20041;-86
2022/09/02 00:46:30;;;;;;;5.85;1.70;;;13.60;99.90;;;;;;5051077;28;20055;-86
2022/09/02 00:49:09;;;;;;;3.10;1.50;;;13.50;99.90;;;;;;5052282;28;20033;-86
2022/09/02 00:52:08;;;;;;;4.57;1.58;;;13.50;99.90;;;;;;5051088;28;20166;-86
2022/09/02 00:54:38;;;;;;;7.40;2.13;;;13.60;99.90;;;;;;5050791;28;20055;-86
2022/09/02 00:57:11;;;;;;;7.05;1.80;;;13.50;99.90;;;;;;5051215;28;20053;-86
2022/09/02 00:59:59;;;;;;;5.45;1.70;;;13.50;99.90;;;;;;5051334;28;20037;-86
2022/09/02 01:02:27;;;;;;;5.60;1.65;;;13.50;99.90;;;;;;5051667;28;20110;-86
2022/09/02 01:04:57;;;;;;;5.10;1.60;;;13.50;99.90;;;;;;5051115;28;20571;-86
2022/09/02 01:07:25;;;;;;;6.72;1.80;;;13.40;99.90;;;;;;5050951;28;20102;-86
2022/09/02 01:09:54;;;;;;;6.15;1.77;;;13.40;99.90;;;;;;5051653;28;20157;-86
2022/09/02 01:12:20;;;;;;;4.85;1.83;;;13.40;99.90;;;;;;5054874;28;20041;-86
2022/09/02 01:14:46;;;;;;;6.43;1.80;;;13.30;99.90;;;;;;5054942;28;20477;-86
2022/09/02 01:17:12;;;;;;;5.55;1.92;;;13.30;99.90;;;;;;5054234;28;20056;-86
2022/09/02 01:19:43;;;;;;;5.93;1.67;;;13.40;99.90;;;;;;5038315;28;20049;-86
2022/09/02 01:22:16;;;;;;;3.85;1.55;;;13.30;99.90;;;;;;5056522;28;20041;-85
2022/09/02 01:24:43;;;;;;;6.53;2.08;;;13.30;99.90;;;;;;5055215;28;20488;-86
2022/09/02 01:27:08;;;;;;;5.70;1.63;;;13.30;99.90;;;;;;5054943;28;20528;-86
2022/09/02 01:29:34;;;;;;;8.00;1.75;;;13.20;99.90;;;;;;5055263;28;20048;-86
2022/09/02 01:32:01;;;;;;;4.40;1.60;;;13.20;99.90;;;;;;5055041;28;20040;-86
2022/09/02 01:34:27;;;;;;;6.22;1.73;;;13.10;99.90;;;;;;5063090;28;20056;-86
2022/09/02 01:36:53;;;;;;;4.50;1.75;;;13.10;99.90;;;;;;5079178;28;20025;-86
2022/09/02 01:39:19;;;;;;;6.57;1.70;;;13.10;99.90;;;;;;5058406;28;20135;-86
2022/09/02 01:41:44;;;;;;;4.13;1.60;;;13.10;99.90;;;;;;5058026;28;20044;-86
2022/09/02 01:44:11;;;;;;;4.72;1.63;;;13.00;99.90;;;;;;5063363;28;20108;-86
2022/09/02 01:46:36;;;;;;;5.05;1.88;;;13.00;99.90;;;;;;5060902;28;20041;-86
2022/09/02 01:49:03;;;;;;;5.20;1.70;;;13.00;99.90;;;;;;5055708;28;20080;-86
2022/09/02 01:51:28;;;;;;;5.68;1.70;;;13.00;99.90;;;;;;5054005;28;20076;-86
2022/09/02 01:53:54;;;;;;;6.65;1.80;;;13.00;99.90;;;;;;5056143;28;20492;-86
2022/09/02 01:56:20;;;;;;;5.10;1.60;;;13.00;99.90;;;;;;5055675;28;20135;-86
2022/09/02 01:58:45;;;;;;;5.88;1.90;;;13.00;99.90;;;;;;5053893;28;20421;-85
2022/09/02 02:01:11;;;;;;;5.22;1.77;;;12.90;99.90;;;;;;5045353;28;20037;-86
2022/09/02 02:03:37;;;;;;;4.93;1.88;;;13.20;99.90;;;;;;5034013;28;20456;-86
2022/09/02 02:06:13;;;;;;;5.93;1.70;;;12.90;99.90;;;;;;5033112;28;20045;-86
2022/09/02 02:08:39;;;;;;;5.32;1.70;;;12.90;99.90;;;;;;5034227;28;20064;-86
2022/09/02 02:11:05;;;;;;;6.25;1.73;;;13.30;99.90;;;;;;5033845;28;20412;-86
2022/09/02 02:13:31;;;;;;;7.07;1.90;;;12.80;99.90;;;;;;5033657;28;20128;-86
2022/09/02 02:15:57;;;;;;;5.60;2.00;;;12.80;99.90;;;;;;5035540;28;20037;-86
2022/09/02 02:18:23;;;;;;;6.10;1.80;;;12.70;99.90;;;;;;5035331;28;20049;-85
2022/09/02 02:20:48;;;;;;;6.22;1.90;;;12.80;99.90;;;;;;5032419;28;20041;-86
2022/09/02 02:23:14;;;;;;;5.80;1.80;;;12.70;99.90;;;;;;5035032;28;20049;-86
2022/09/02 02:25:40;;;;;;;4.10;1.65;;;12.70;99.90;;;;;;5035712;28;20041;-86
2022/09/02 02:28:06;;;;;;;5.53;1.85;;;12.70;99.90;;;;;;5039330;28;20187;-85
2022/09/02 02:30:32;;;;;;;5.25;1.80;;;12.60;99.90;;;;;;5038185;28;20045;-86
2022/09/02 02:33:01;;;;;;;5.65;1.98;;;12.60;99.90;;;;;;5035920;28;20041;-86
2022/09/02 02:35:27;;;;;;;5.10;1.90;;;12.60;99.90;;;;;;5033429;28;20045;-85
2022/09/02 02:37:53;;;;;;;4.93;1.70;;;12.60;99.90;;;;;;5035453;28;20041;-84
2022/09/02 02:40:22;;;;;;;4.88;1.90;;;12.50;99.90;;;;;;5032527;28;20478;-86
2022/09/02 02:42:48;;;;;;;5.45;2.00;;;12.50;99.90;;;;;;5034879;28;20073;-85
2022/09/02 02:45:14;;;;;;;4.72;1.80;;;12.50;99.90;;;;;;5033096;28;20045;-86
2022/09/02 02:47:42;;;;;;;6.78;2.00;;;12.50;99.90;;;;;;5034397;28;20042;-86
2022/09/02 02:50:14;;;;;;;6.15;2.10;;;12.40;99.90;;;;;;5033508;28;20111;-86
2022/09/02 02:52:41;;;;;;;6.25;1.85;;;12.40;99.90;;;;;;5033469;28;20554;-86
2022/09/02 02:55:08;;;;;;;5.53;1.90;;;12.40;99.90;;;;;;5033791;28;20076;-85
2022/09/02 02:57:34;;;;;;;7.85;2.20;;;12.30;99.90;;;;;;5032895;28;20511;-86
2022/09/02 03:00:28;;;;;;;6.13;1.95;;;12.30;99.90;;;;;;5033568;28;20057;-86
2022/09/02 03:03:04;;;;;;;5.65;2.00;;;12.30;99.90;;;;;;5030233;28;20401;-86
2022/09/02 03:05:29;;;;;;;5.30;1.90;;;12.30;99.90;;;;;;5033160;28;20049;-85
2022/09/02 03:07:55;;;;;;;7.00;2.10;;;12.20;99.90;;;;;;5033832;28;20061;-86
2022/09/02 03:10:24;;;;;;;5.68;2.00;;;12.20;99.90;;;;;;5033589;28;20049;-86
2022/09/02 03:12:51;;;;;;;5.40;1.95;;;12.20;99.90;;;;;;5039312;28;20029;-86
2022/09/02 03:15:18;;;;;;;6.07;2.22;;;12.10;99.90;;;;;;5038357;28;20054;-85
2022/09/02 03:17:45;;;;;;;6.75;2.00;;;12.10;99.90;;;;;;5035160;28;20088;-86
2022/09/02 03:20:11;;;;;;;5.53;2.40;;;12.10;99.90;;;;;;5036397;28;20473;-86
2022/09/02 03:22:43;;;;;;;6.28;2.15;;;12.10;99.90;;;;;;5042126;28;20048;-86
2022/09/02 03:25:11;;;;;;;6.80;2.40;;;12.00;99.90;;;;;;5032838;28;20049;-86
2022/09/02 03:27:38;;;;;;;5.95;2.15;;;12.00;99.90;;;;;;5035629;28;20104;-86
2022/09/02 03:30:06;;;;;;;5.75;2.10;;;12.00;99.90;;;;;;5031847;28;20049;-86
2022/09/02 03:32:31;;;;;;;5.88;2.10;;;12.00;99.90;;;;;;5032244;28;20042;-86
2022/09/02 03:34:57;;;;;;;5.72;2.00;;;12.00;99.90;;;;;;5034953;28;20053;-86
2022/09/02 03:37:23;;;;;;;6.70;2.10;;;11.90;99.90;;;;;;5031648;28;20144;-86
2022/09/02 03:39:48;;;;;;;5.38;2.10;;;12.10;99.90;;;;;;5032791;28;20045;-86
2022/09/02 03:42:14;;;;;;;7.03;2.30;;;11.90;99.90;;;;;;5033821;28;20459;-86
2022/09/02 03:44:40;;;;;;;6.07;2.30;;;11.90;99.90;;;;;;5032801;28;20041;-86
2022/09/02 03:47:07;;;;;;;6.88;2.08;;;11.80;99.90;;;;;;5032212;28;20045;-86
2022/09/02 03:49:33;;;;;;;7.05;2.13;;;11.80;99.90;;;;;;5033374;28;20049;-86
2022/09/02 03:51:59;;;;;;;6.30;2.30;;;11.80;99.90;;;;;;5031624;28;20084;-86
2022/09/02 03:54:24;;;;;;;6.63;2.30;;;11.70;99.90;;;;;;5033473;28;20084;-86
2022/09/02 03:56:50;;;;;;;7.63;2.30;;;11.70;99.90;;;;;;5033560;28;20041;-86
2022/09/02 03:59:17;;;;;;;6.03;2.20;;;11.70;99.90;;;;;;5031564;28;20504;-85
2022/09/02 04:01:43;;;;;;;7.15;2.30;;;11.70;99.90;;;;;;5040773;28;20051;-85
2022/09/02 04:04:09;;;;;;;6.18;2.30;;;11.70;99.90;;;;;;5063723;28;20044;-85
2022/09/02 04:06:35;;;;;;;6.57;2.35;;;11.60;99.90;;;;;;5054590;28;20047;-86
2022/09/02 04:09:00;;;;;;;5.70;2.20;;;11.60;99.90;;;;;;5054741;28;20495;-86
2022/09/02 04:11:26;;;;;;;6.22;2.35;;;11.60;99.90;;;;;;5054503;28;20056;-86
2022/09/02 04:13:53;;;;;;;7.60;2.38;;;11.60;99.90;;;;;;5055171;28;20075;-86
2022/09/02 04:16:27;;;;;;;6.43;2.38;;;11.50;99.90;;;;;;5072717;28;20083;-86
2022/09/02 04:18:56;;;;;;;;;;;11.60;99.90;;;;;;5072854;28;20032;-85
2022/09/02 04:21:23;;;;;;;6.07;2.35;;;11.50;99.90;;;;;;5072847;28;19920;-86
2022/09/02 04:23:51;;;;;;;6.05;2.30;;;11.50;99.90;;;;;;5055037;28;20048;-86
2022/09/02 04:26:18;;;;;;;6.15;2.30;;;11.50;99.90;;;;;;5072086;28;20072;-86
2022/09/02 04:28:44;;;;;;;8.43;2.35;;;11.40;99.90;;;;;;5054926;28;20040;-85
2022/09/02 04:31:12;;;;;;;7.47;2.50;;;11.50;99.90;;;;;;5072789;28;20454;-86
2022/09/02 04:33:38;;;;;;;6.35;2.20;;;11.80;99.90;;;;;;5054204;28;20048;-86
2022/09/02 04:36:05;;;;;;;6.82;2.63;;;11.40;99.90;;;;;;5055154;28;20101;-85
2022/09/02 04:38:31;;;;;;;6.22;2.20;;;11.40;99.90;;;;;;5054924;28;20357;-86
2022/09/02 04:40:57;;;;;;;6.68;2.47;;;11.40;99.90;;;;;;5071939;28;20047;-86
2022/09/02 04:43:24;;;;;;;8.68;2.50;;;11.40;99.90;;;;;;5072741;28;20044;-86
2022/09/02 04:45:50;;;;;;;6.10;2.20;;;11.40;99.90;;;;;;5054044;28;20044;-86
2022/09/02 04:48:17;;;;;;;6.45;2.50;;;11.40;99.90;;;;;;5073200;28;20041;-86
2022/09/02 04:50:44;;;;;;;7.38;2.38;;;11.40;99.90;;;;;;5065999;28;20059;-86
2022/09/02 04:53:10;;;;;;;5.85;2.25;;;11.40;99.90;;;;;;5058921;28;20046;-86
2022/09/02 04:55:39;;;;;;;6.30;2.40;;;11.40;99.90;;;;;;5055442;28;20052;-86
2022/09/02 04:58:05;;;;;;;8.45;2.60;;;11.40;99.90;;;;;;5082475;28;20041;-86
2022/09/02 05:00:31;;;;;;;6.93;2.28;;;11.40;99.90;;;;;;5058854;28;20040;-86
2022/09/02 05:02:57;;;;;;;7.47;2.55;;;11.40;99.90;;;;;;5056317;28;20445;-86
2022/09/02 05:05:22;;;;;;;7.85;2.33;;;11.40;99.90;;;;;;5073579;28;20570;-86
2022/09/02 05:07:48;;;;;;;8.30;2.50;;;11.40;99.90;;;;;;5053875;28;20044;-86
2022/09/02 05:10:14;;;;;;;8.50;2.40;;;11.40;99.90;;;;;;5071784;28;20056;-86
2022/09/02 05:12:40;;;;;;;6.90;2.50;;;11.40;99.90;;;;;;5072334;28;20392;-86
2022/09/02 05:15:08;;;;;;;7.97;2.50;;;11.50;99.90;;;;;;5071433;28;20049;-86
2022/09/02 05:17:35;;;;;;;9.38;2.58;;;11.50;99.90;;;;;;5053304;28;20059;-85
2022/09/02 05:20:03;;;;;;;7.53;2.50;;;11.50;99.90;;;;;;5058198;28;20072;-85
2022/09/02 05:22:28;;;;;;;7.70;2.58;;;11.50;99.90;;;;;;5071298;28;20045;-86
2022/09/02 05:24:55;;;;;;;6.55;2.35;;;11.50;99.90;;;;;;5054527;28;20373;-84
2022/09/02 05:27:22;;;;;;;6.47;2.28;;;11.60;99.90;;;;;;5075298;28;20037;-85
2022/09/02 05:29:48;;;;;;;8.35;2.78;;;11.60;99.90;;;;;;5053383;28;20045;-86
2022/09/02 05:32:14;;;;;;;7.72;2.50;;;11.70;99.90;;;;;;5054093;28;20377;-86
2022/09/02 05:34:40;;;;;;;6.63;2.60;;;11.70;99.90;;;;;;5072457;28;20124;-85
2022/09/02 05:37:06;;;;;;;9.07;2.70;;;11.80;99.90;;;;;;5071860;28;20045;-85
2022/09/02 05:39:34;;;;;;;6.90;2.53;;;11.80;99.90;;;;;;5072255;28;20036;-86
2022/09/02 05:41:59;;;;;;;7.65;3.08;;;11.80;99.90;;;;;;5072293;28;20048;-86
2022/09/02 05:44:26;;;;;;;7.75;2.60;;;11.90;99.90;;;;;;5071284;28;20033;-86
2022/09/02 05:46:52;;;;;;;7.88;2.83;;;12.00;99.90;;;;;;5053756;28;20037;-86
2022/09/02 05:49:19;;;;;;;8.40;2.65;;;12.00;99.90;;;;;;5053853;28;20044;-86
2022/09/02 05:51:48;;;;;;;8.93;2.95;;;12.10;99.90;;;;;;5053758;28;20045;-85
2022/09/02 05:54:27;;;;;;;8.18;2.70;;;12.20;99.90;;;;;;5054176;28;20431;-86
2022/09/02 05:56:56;;;;;;;7.88;2.55;;;12.30;99.90;;;;;;5056048;28;20063;-86
2022/09/02 05:59:25;;;;;;;7.93;2.80;;;12.30;99.90;;;;;;5075284;28;20442;-86
2022/09/02 06:01:52;;;;;;;7.10;2.60;;;12.30;99.90;;;;;;5075493;28;20480;-86
2022/09/02 06:04:19;;;;;;;6.70;2.65;;;12.50;99.90;;;;;;5057026;28;20032;-90
2022/09/02 06:06:45;;;;;;;7.30;2.63;;;12.50;99.90;;;;;;5057948;28;20365;-85
2022/09/02 06:09:14;;;;;;;6.50;2.55;;;12.60;99.90;;;;;;5075105;28;20040;-85
2022/09/02 06:11:44;;;;;;;7.15;2.75;;;12.70;99.90;;;;;;5056864;28;20150;-86
2022/09/02 06:14:12;;;;;;;8.98;2.70;;;12.70;99.90;;;;;;5075867;28;20076;-86
2022/09/02 06:16:39;;;;;;;8.13;2.63;;;12.80;99.90;;;;;;5075086;28;20045;-84
2022/09/02 06:19:06;;;;;;;7.32;2.67;;;12.90;99.90;;;;;;5074656;28;20048;-83
2022/09/02 06:21:32;;;;;;;7.95;2.90;;;13.00;99.90;;;;;;5057018;28;20036;-83
2022/09/02 06:23:58;;;;;;;7.85;2.63;;;13.10;99.90;;;;;;5058327;28;20451;-85
2022/09/02 06:26:24;;;;;;;8.13;3.00;;;13.10;99.90;;;;;;5063154;28;20044;-86
2022/09/02 06:28:50;;;;;;;7.65;2.67;;;13.20;99.90;;;;;;5062800;28;20567;-88
2022/09/02 06:31:19;;;;;;;11.32;3.03;;;13.30;99.90;;;;;;5058121;28;20054;-92
2022/09/02 06:33:46;;;;;;;7.80;2.80;;;13.30;99.90;;;;;;5084200;28;20250;-91
2022/09/02 06:36:15;;;;;;;7.22;2.80;;;13.40;99.90;;;;;;5060554;28;20484;-90
2022/09/02 06:38:44;;;;;;;7.68;2.65;;;13.50;99.90;;;;;;5055485;28;20040;-87
2022/09/02 06:41:11;;;;;;;7.90;3.20;;;13.50;99.90;;;;;;5053142;28;20033;-90
2022/09/02 06:43:40;;;;;;;7.30;2.90;;;13.60;99.90;;;;;;5053725;28;20041;-90
2022/09/02 06:46:06;;;;;;;7.50;2.58;;;13.70;99.90;;;;;;5056223;28;20036;-90
2022/09/02 06:48:32;;;;;;;7.95;2.50;;;13.80;99.90;;;;;;5069353;28;20123;-90
2022/09/02 06:51:00;;;;;;;7.55;2.75;;;14.20;99.90;;;;;;5074839;28;20123;-90
2022/09/02 06:53:26;;;;;;;7.32;2.60;;;14.00;99.90;;;;;;5072947;28;20131;-89
2022/09/02 06:55:52;;;;;;;7.13;2.67;;;14.10;99.90;;;;;;5073643;28;20040;-90
2022/09/02 06:58:17;;;;;;;7.30;2.67;;;14.20;99.90;;;;;;5073193;28;20094;-90
2022/09/02 07:00:43;;;;;;;8.45;2.90;;;14.20;99.90;;;;;;5072930;28;20135;-90
2022/09/02 07:06:03;;;;;;;7.22;2.75;;;14.40;99.90;;;;;;5073047;28;20044;-85
2022/09/02 07:08:29;;;;;;;9.63;2.72;;;14.50;99.90;;;;;;5075030;28;20135;-84
2022/09/02 07:10:55;;;;;;;7.72;2.60;;;14.60;99.90;;;;;;5074776;28;20087;-85
2022/09/02 07:13:20;;;;;;;8.40;2.75;;;14.80;99.90;;;;;;5072694;28;20036;-89
2022/09/02 07:15:46;;;;;;;8.55;2.60;;;14.80;99.90;;;;;;5073303;28;20047;-89
2022/09/02 07:18:12;;;;;;;7.78;2.50;;;15.00;99.90;;;;;;5074210;28;20404;-88
2022/09/02 07:20:38;;;;;;;7.57;2.50;;;15.90;99.90;;;;;;5079264;28;20041;-89
2022/09/02 07:23:08;;;;;;;8.07;2.70;;;15.20;99.90;;;;;;5073575;28;20087;-90
2022/09/02 07:25:37;;;;;;;9.25;2.83;;;15.40;99.90;;;;;;5073146;28;20058;-87
2022/09/02 07:28:03;;;;;;;8.60;2.40;;;15.50;99.90;;;;;;5072478;28;20145;-86
2022/09/02 07:30:30;;;;;;;8.95;2.67;;;15.70;99.90;;;;;;5072137;28;20055;-86
2022/09/02 07:32:56;;;;;;;9.05;2.38;;;15.70;99.90;;;;;;5072359;28;20040;-86
2022/09/02 07:35:21;;;;;;;8.27;2.33;;;15.90;99.90;;;;;;5071716;28;20381;-86
2022/09/02 07:37:49;;;;;;;10.48;2.45;;;16.00;99.90;;;;;;5072378;28;20515;-86
2022/09/02 07:40:15;;;;;;;6.97;2.40;;;16.50;99.90;;;;;;5072592;28;20037;-90
2022/09/02 07:42:42;;;;;;;9.57;2.35;;;16.30;99.90;;;;;;5074367;28;20110;-87
2022/09/02 07:45:09;;;;;;;7.63;2.45;;;16.40;99.90;;;;;;5074188;28;20135;-92
2022/09/02 07:47:35;;;;;;;8.20;2.50;;;16.50;99.90;;;;;;5077374;28;20040;-93
2022/09/02 07:50:00;;;;;;;6.45;2.28;;;17.10;99.90;;;;;;5072941;28;20568;-92
2022/09/02 07:52:26;;;;;;;9.02;2.30;;;16.70;99.90;;;;;;5072216;28;20086;-92
2022/09/02 07:54:52;;;;;;;7.78;2.38;;;16.80;99.90;;;;;;5072661;28;20053;-91
2022/09/02 07:57:18;;;;;;;7.55;2.20;;;16.90;99.90;;;;;;5071728;28;20040;-92
2022/09/02 07:59:46;;;;;;;7.25;2.08;;;17.10;99.90;;;;;;5051650;28;20048;-91
2022/09/02 08:02:13;;;;;;;7.15;2.20;;;17.10;99.90;;;;;;5041599;28;20033;-91
2022/09/02 08:04:39;;;;;;;5.72;2.00;;;17.60;99.90;;;;;;5060689;28;20041;-93
2022/09/02 08:07:05;;;;;;;8.23;2.53;;;17.40;99.90;;;;;;5054316;28;20766;-93
2022/09/02 08:09:31;;;;;;;6.30;2.03;;;17.60;99.90;;;;;;5038941;28;20078;-93
2022/09/02 08:11:57;;;;;;;7.07;2.40;;;17.90;99.90;;;;;;5061763;28;20120;-95
2022/09/02 08:14:26;;;;;;;8.00;2.40;;;18.10;99.90;;;;;;5036466;28;20041;-94
2022/09/02 08:16:53;;;;;;;6.10;2.00;;;18.40;99.90;;;;;;5040196;28;20049;-93
2022/09/02 08:19:20;;;;;;;8.50;2.10;;;18.60;99.90;;;;;;5035281;28;20044;-94
2022/09/02 08:21:45;;;;;;;6.60;2.20;;;18.20;99.90;;;;;;5036098;28;20081;-93
2022/09/02 08:24:11;;;;;;;8.32;2.30;;;19.00;99.90;;;;;;5053574;28;20083;-92
2022/09/02 08:26:37;;;;;;;7.32;2.40;;;18.30;99.90;;;;;;5052811;28;20595;-93
2022/09/02 08:29:04;;;;;;;6.63;2.10;;;18.40;99.90;;;;;;5036205;28;20072;-93
2022/09/02 08:31:30;;;;;;;7.32;2.45;;;18.60;99.90;;;;;;5036914;28;20384;-93
2022/09/02 08:33:57;;;;;;;8.48;2.10;;;18.80;99.90;;;;;;5040179;28;20041;-92
2022/09/02 08:36:24;;;;;;;9.77;2.10;;;19.10;99.90;;;;;;5059428;28;20052;-93
2022/09/02 08:39:04;;;;;;;8.43;2.30;;;18.90;99.90;;;;;;5114501;22;20053;-92
2022/09/02 08:41:40;;;;;;;7.32;2.28;;;19.60;99.90;;;;;;5072500;28;20428;-93
2022/09/02 08:44:06;;;;;;;8.80;2.20;;;19.40;99.90;;;;;;5072732;28;20028;-93
2022/09/02 08:46:34;;;;;;;6.57;2.10;;;19.30;99.90;;;;;;5054976;28;20440;-93
2022/09/02 08:49:07;;;;;;;10.27;2.40;;;19.60;99.90;;;;;;5074053;28;20108;-92
2022/09/02 08:51:55;;;;;;;9.20;2.00;;;19.50;99.90;;;;;;5055589;28;20507;-92
2022/09/02 08:54:50;;;;;;;7.28;2.13;;;19.60;99.90;;;;;;5076918;28;20048;-93
2022/09/02 08:57:16;;;;;;;8.45;2.28;;;19.70;99.90;;;;;;5054195;28;20572;-92
2022/09/02 08:59:43;;;;;;;9.35;2.17;;;20.60;99.90;;;;;;5055123;28;20083;-92
2022/09/02 09:02:28;;;;;;;7.22;2.20;;;19.90;99.90;;;;;;5054520;28;20036;-93
2022/09/02 09:05:06;;;;;;;8.35;2.30;;;20.00;99.90;;;;;;5077998;28;20064;-91
2022/09/02 09:07:36;;;;;;;5.80;1.90;;;20.20;99.90;;;;;;5056189;28;20408;-91
2022/09/02 09:10:23;;;;;;;7.30;2.17;;;20.30;99.90;;;;;;5072106;28;20044;-91
2022/09/02 09:13:08;;;;;;;6.20;1.88;;;20.50;99.90;;;;;;5064393;28;20408;-90
2022/09/02 09:15:54;;;;;;;8.32;1.95;;;20.60;99.90;;;;;;5058848;28;20052;-91
2022/09/02 09:18:37;;;;;;;9.75;2.63;;;20.60;99.90;;;;;;5054824;28;20036;-92
2022/09/02 09:21:03;;;;;;;7.07;2.10;;;20.70;98.60;;;;;;5054411;28;20097;-92
2022/09/02 09:23:35;;;;;;;5.88;1.83;;;20.80;99.90;;;;;;5056697;28;20037;-90
2022/09/02 09:26:18;;;;;;;6.57;1.80;;;20.90;99.70;;;;;;5038898;28;20041;-91
2022/09/02 09:28:46;;;;;;;6.45;1.98;;;21.00;99.60;;;;;;5037271;28;20041;-92
2022/09/02 09:31:17;;;;;;;6.90;2.10;;;21.20;99.70;;;;;;5035990;28;20584;-91
2022/09/02 09:34:05;;;;;;;8.40;1.90;;;21.30;99.00;;;;;;5038650;28;20094;-89
2022/09/02 09:36:39;;;;;;;7.82;2.10;;;21.50;97.50;;;;;;5061380;28;20041;-92
2022/09/02 09:39:29;;;;;;;5.78;1.90;;;21.50;97.30;;;;;;5044382;28;20057;-93
2022/09/02 09:42:10;;;;;;;6.75;1.92;;;21.70;96.20;;;;;;5042777;28;20443;-91
2022/09/02 09:44:44;;;;;;;5.18;1.80;;;21.80;97.30;;;;;;5057560;28;20047;-91
2022/09/02 09:47:18;;;;;;;5.97;1.88;;;22.70;96.40;;;;;;5062264;28;20049;-91
2022/09/02 09:49:49;;;;;;;5.20;1.70;;;22.60;97.20;;;;;;5059171;28;20041;-93
2022/09/02 09:52:29;;;;;;;6.05;2.08;;;22.20;96.90;;;;;;5056346;28;20045;-93
2022/09/02 09:55:18;;;;;;;5.32;1.80;;;22.30;95.70;;;;;;5060773;28;20132;-92
2022/09/02 09:57:47;;;;;;;6.05;1.80;;;22.40;96.10;;;;;;5038017;28;20228;-92
2022/09/02 10:00:18;;;;;;;4.55;1.63;;;22.50;95.50;;;;;;5071650;28;20115;-90
2022/09/02 10:02:49;;;;;;;7.25;1.80;;;22.50;94.50;;;;;;5077417;28;20381;-92
2022/09/02 10:05:23;;;;;;;6.35;1.80;;;22.70;95.00;;;;;;5056535;28;20052;-92
2022/09/02 10:07:55;;;;;;;4.28;1.60;;;22.80;94.70;;;;;;5063010;28;20122;-92
2022/09/02 10:10:23;;;;;;;5.15;1.70;;;23.60;94.70;;;;;;5074699;28;20074;-91
2022/09/02 10:12:51;;;;;;;7.05;1.80;;;23.10;94.20;;;;;;5078804;28;20063;-90
2022/09/02 10:15:43;;;;;;;4.55;1.60;;;23.20;93.60;;;;;;5057418;28;20049;-91
2022/09/02 10:18:30;;;;;;;6.45;1.88;;;23.20;91.70;;;;;;5057828;28;20041;-94
2022/09/02 10:21:15;;;;;;;6.78;1.80;;;23.40;92.60;;;;;;5074896;28;20646;-90
2022/09/02 10:24:00;;;;;;;6.15;1.60;;;23.50;91.40;;;;;;5051204;28;20063;-91
2022/09/02 10:26:37;;;;;;;6.07;1.80;;;23.50;91.00;;;;;;5056068;28;20131;-91
2022/09/02 10:29:06;;;;;;;6.75;1.70;;;23.50;91.40;;;;;;5075239;28;20094;-89
2022/09/02 10:31:46;;;;;;;7.10;1.70;;;23.60;91.80;;;;;;5073885;28;20488;-89
2022/09/02 10:34:36;;;;;;;4.28;1.60;;;23.80;90.60;;;;;;5057356;28;20134;-91
2022/09/02 10:37:05;;;;;;;7.55;1.88;;;23.90;90.40;;;;;;5076886;28;20106;-86
2022/09/02 10:40:00;;;;;;;5.65;1.70;;;24.20;91.10;;;;;;5057377;28;20060;-90
2022/09/02 10:42:59;;;;;;;5.72;1.70;;;24.30;90.50;;;;;;5055524;28;20059;-91
2022/09/02 10:45:52;;;;;;;5.82;1.73;;;24.50;90.00;;;;;;5074464;28;20480;-88
2022/09/02 10:48:44;;;;;;;5.70;1.75;;;24.60;88.60;;;;;;5057059;28;20051;-88
2022/09/02 10:51:42;;;;;;;5.85;1.80;;;24.60;87.60;;;;;;5074583;28;20085;-87
2022/09/02 10:55:05;;;;;;;6.68;1.70;;;24.70;87.80;;;;;;5056478;28;20070;-86
2022/09/02 10:57:59;;;;;;;6.72;1.80;;;24.80;85.70;;;;;;4961362;28;20047;-88
2022/09/02 11:00:27;;;;;;;8.23;1.92;;;24.90;85.40;;;;;;5062588;28;20056;-87
2022/09/02 11:03:00;;;;;;;4.50;1.60;;;25.00;86.80;;;;;;5074502;28;20102;-85
2022/09/02 11:05:41;;;;;;;5.45;1.65;;;25.00;87.10;;;;;;5060179;28;20040;-85
2022/09/02 11:08:20;;;;;;;4.70;1.65;;;24.90;83.80;;;;;;5074504;28;20106;-86
2022/09/02 11:11:10;;;;;;;4.85;1.67;;;25.10;85.90;;;;;;5075003;28;20044;-84
2022/09/02 11:14:04;;;;;;;5.78;1.80;;;25.20;83.40;;;;;;5056571;28;20048;-80
2022/09/02 11:16:42;;;;;;;5.80;1.80;;;25.10;84.40;;;;;;5091034;28;20040;-85
2022/09/02 11:19:34;;;;;;;5.78;1.95;;;24.90;84.20;;;;;;5063071;28;20191;-85
2022/09/02 11:22:39;;;;;;;4.93;1.80;;;25.00;84.80;;;;;;5058063;28;20044;-84
2022/09/02 11:25:50;;;;;;;5.43;1.70;;;24.90;84.10;;;;;;5087098;28;20058;-86
2022/09/02 11:28:43;;;;;;;6.50;2.17;;;25.40;84.10;;;;;;5055928;28;20053;-82
2022/09/02 11:31:25;;;;;;;5.43;1.70;;;25.50;84.60;;;;;;5074542;28;20119;-87
2022/09/02 11:34:14;;;;;;;5.35;1.80;;;25.80;83.90;;;;;;5073856;28;20275;-88
2022/09/02 11:36:40;;;;;;;9.50;2.28;;;25.90;83.00;;;;;;5074137;28;20084;-87
2022/09/02 11:39:17;;;;;;;4.55;1.80;;;26.00;82.40;;;;;;5055863;28;20083;-87
2022/09/02 11:42:07;;;;;;;5.30;1.80;;;25.90;80.60;;;;;;5055977;28;20139;-87
2022/09/02 11:45:09;;;;;;;5.50;1.80;;;26.10;81.40;;;;;;5056653;28;20048;-88
2022/09/02 11:48:14;;;;;;;5.25;1.70;;;26.20;82.50;;;;;;5059495;28;20056;-87
2022/09/02 11:50:55;;;;;;;7.50;1.90;;;26.30;81.10;;;;;;5007936;28;20053;-89
2022/09/02 11:53:29;;;;;;;4.00;1.65;;;26.40;80.00;;;;;;5062431;28;20099;-87
2022/09/02 11:56:02;;;;;;;5.03;1.80;;;26.50;80.00;;;;;;5055287;28;20388;-87
2022/09/02 11:58:40;;;;;;;5.18;1.77;;;26.40;80.40;;;;;;5055784;28;20044;-87
2022/09/02 12:01:21;;;;;;;6.18;1.80;;;26.40;78.80;;;;;;5074029;28;20040;-87
2022/09/02 12:03:59;;;;;;;5.25;1.83;;;26.50;80.40;;;;;;5073303;28;20051;-88
2022/09/02 12:06:25;;;;;;;4.53;1.60;;;26.50;80.20;;;;;;5055153;28;20047;-88
2022/09/02 12:08:52;;;;;;;5.75;1.80;;;26.40;80.20;;;;;;5055496;28;20051;-87
2022/09/02 12:11:40;;;;;;;7.60;1.90;;;26.50;80.40;;;;;;5054570;28;20167;-88
2022/09/02 12:14:24;;;;;;;6.53;2.10;;;26.50;79.50;;;;;;5055853;28;20055;-88
2022/09/02 12:17:01;;;;;;;5.38;1.90;;;26.40;79.40;;;;;;5072691;28;20040;-89
2022/09/02 12:19:38;;;;;;;7.65;1.90;;;26.90;79.00;;;;;;5073240;28;20045;-91
2022/09/02 12:22:16;;;;;;;6.32;1.80;;;26.60;79.90;;;;;;5055776;28;20063;-88
2022/09/02 12:24:54;;;;;;;6.90;1.88;;;26.80;79.40;;;;;;5055472;28;20123;-86
2022/09/02 12:27:36;;;;;;;8.10;1.90;;;26.90;77.50;;;;;;5048503;28;20044;-87
2022/09/02 12:30:08;;;;;;;6.15;2.03;;;27.10;78.00;;;;;;5051810;28;20064;-86
2022/09/02 12:32:43;;;;;;;6.10;1.88;;;27.10;77.90;;;;;;5034107;28;20388;-86
2022/09/02 12:35:30;;;;;;;7.97;2.00;;;27.30;76.80;;;;;;5026316;28;20063;-87
2022/09/02 12:37:57;;;;;;;6.45;1.90;;;27.40;76.50;;;;;;5072053;28;20087;-88
2022/09/02 12:40:31;;;;;;;6.40;1.92;;;27.50;77.20;;;;;;5071960;28;20060;-85
2022/09/02 12:43:02;;;;;;;7.22;1.90;;;27.50;75.20;;;;;;5054360;28;20049;-86
2022/09/02 12:45:31;;;;;;;7.40;2.00;;;27.60;75.80;;;;;;5071685;28;20045;-85
2022/09/02 12:48:10;;;;;;;5.82;1.90;;;27.80;76.20;;;;;;5073297;28;20119;-81
2022/09/02 12:50:57;;;;;;;5.43;1.80;;;27.90;74.90;;;;;;5076357;28;20055;-85
2022/09/02 12:53:22;;;;;;;6.13;1.80;;;27.60;75.20;;;;;;5067371;28;20067;-86
2022/09/02 12:55:56;;;;;;;5.90;1.90;;;27.70;75.90;;;;;;5074135;28;20539;-86
2022/09/02 12:58:23;;;;;;;6.05;1.90;;;27.50;73.30;;;;;;5073399;28;20044;-85
2022/09/02 13:01:10;;;;;;;4.85;1.90;;;27.80;75.20;;;;;;5094774;28;20053;-86
2022/09/02 13:04:01;;;;;;;5.47;1.90;;;27.90;73.90;;;;;;5055462;28;20044;-87
2022/09/02 13:06:57;;;;;;;5.80;1.90;;;28.20;73.80;;;;;;5074612;28;20120;-85
2022/09/02 13:09:41;;;;;;;6.43;2.00;;;28.30;72.50;;;;;;5056748;28;20080;-85
2022/09/02 13:12:29;;;;;;;5.50;2.08;;;28.40;74.10;;;;;;5057681;28;20057;-85
2022/09/02 13:15:19;;;;;;;6.88;1.83;;;28.70;73.10;;;;;;5057619;28;20044;-86